createdAt,value
2017-06-14T00:00:13.637Z,88.68
2017-06-14T00:01:14.224Z,88.92
2017-06-14T00:02:14.799Z,89.39
2017-06-14T00:03:15.384Z,90.20
2017-06-14T00:04:15.970Z,89.34
2017-06-14T00:05:16.548Z,88.29
2017-06-14T00:06:17.119Z,87.91
2017-06-14T00:07:17.694Z,88.96
2017-06-14T00:08:18.268Z,87.34
2017-06-14T00:09:18.843Z,90.25
2017-06-14T00:10:19.417Z,88.01
2017-06-14T00:11:19.990Z,88.87
2017-06-14T00:12:20.565Z,89.92
2017-06-14T00:13:21.139Z,90.20
2017-06-14T00:14:21.713Z,89.92
2017-06-14T00:15:22.287Z,89.63
2017-06-14T00:16:22.862Z,90.20
2017-06-14T00:17:23.435Z,90.01
2017-06-14T00:18:24.013Z,91.11
2017-06-14T00:19:24.583Z,89.25
2017-06-14T00:20:25.157Z,87.68
2017-06-14T00:21:25.731Z,90.30
2017-06-14T00:22:26.306Z,88.82
2017-06-14T00:23:26.880Z,88.82
2017-06-14T00:24:27.454Z,90.45
2017-06-14T00:25:28.028Z,90.54
2017-06-14T00:26:28.603Z,89.11
2017-06-14T00:27:29.178Z,88.87
2017-06-14T00:28:29.751Z,90.11
2017-06-14T00:29:30.326Z,90.31
2017-06-14T00:30:30.900Z,92.26
2017-06-14T00:31:31.472Z,89.25
2017-06-14T00:32:32.047Z,90.16
2017-06-14T00:33:32.634Z,90.25
2017-06-14T00:34:33.207Z,90.54
2017-06-14T00:35:33.784Z,90.16
2017-06-14T00:36:34.370Z,89.68
2017-06-14T00:37:34.945Z,91.40
2017-06-14T00:38:35.521Z,89.20
2017-06-14T00:39:36.094Z,91.45
2017-06-14T00:40:36.669Z,90.59
2017-06-14T00:41:37.243Z,88.63
2017-06-14T00:42:37.817Z,90.35
2017-06-14T00:43:38.391Z,92.02
2017-06-14T00:44:38.968Z,90.20
2017-06-14T00:45:39.541Z,89.20
2017-06-14T00:46:40.115Z,89.20
2017-06-14T00:47:40.691Z,90.21
2017-06-14T00:48:41.264Z,91.97
2017-06-14T00:49:41.836Z,93.36
2017-06-14T00:50:42.411Z,90.49
2017-06-14T00:51:42.983Z,90.16
2017-06-14T00:52:43.558Z,90.92
2017-06-14T00:53:44.131Z,89.39
2017-06-14T00:54:44.705Z,90.06
2017-06-14T00:55:45.278Z,92.83
2017-06-14T00:56:45.852Z,91.11
2017-06-14T00:57:46.427Z,90.88
2017-06-14T00:58:47.001Z,90.02
2017-06-14T00:59:47.576Z,92.74
2017-06-14T01:00:48.150Z,90.92
2017-06-14T01:01:48.724Z,92.50
2017-06-14T01:02:49.297Z,91.36
2017-06-14T01:03:49.872Z,90.78
2017-06-14T01:04:50.445Z,91.12
2017-06-14T01:05:51.020Z,93.36
2017-06-14T01:06:51.593Z,93.93
2017-06-14T01:07:52.183Z,93.79
2017-06-14T01:08:52.768Z,90.88
2017-06-14T01:09:53.343Z,89.16
2017-06-14T01:10:53.918Z,90.17
2017-06-14T01:11:54.491Z,92.79
2017-06-14T01:12:55.067Z,92.31
2017-06-14T01:13:55.642Z,93.88
2017-06-14T01:14:56.227Z,91.45
2017-06-14T01:15:56.801Z,90.11
2017-06-14T01:16:57.387Z,93.12
2017-06-14T01:17:57.963Z,91.93
2017-06-14T01:18:58.537Z,92.12
2017-06-14T01:19:59.111Z,92.31
2017-06-14T01:20:59.684Z,90.21
2017-06-14T01:22:00.258Z,92.21
2017-06-14T01:23:00.843Z,92.12
2017-06-14T01:24:01.418Z,91.60
2017-06-14T01:25:01.995Z,93.88
2017-06-14T01:26:02.567Z,92.79
2017-06-14T01:27:03.143Z,92.17
2017-06-14T01:28:03.717Z,92.46
2017-06-14T01:29:04.292Z,92.97
2017-06-14T01:30:04.865Z,93.55
2017-06-14T01:31:05.440Z,92.21
2017-06-14T01:32:06.012Z,90.55
2017-06-14T01:33:06.588Z,91.78
2017-06-14T01:34:07.161Z,93.22
2017-06-14T01:35:07.735Z,93.51
2017-06-14T01:36:08.320Z,93.36
2017-06-14T01:37:08.894Z,91.50
2017-06-14T01:38:09.470Z,93.17
2017-06-14T01:39:10.056Z,93.07
2017-06-14T01:40:10.630Z,91.74
2017-06-14T01:41:11.206Z,91.88
2017-06-14T01:42:11.780Z,93.55
2017-06-14T01:43:12.356Z,93.07
2017-06-14T01:44:12.929Z,92.79
2017-06-14T01:45:13.506Z,93.93
2017-06-14T01:46:14.078Z,92.02
2017-06-14T01:47:14.653Z,92.69
2017-06-14T01:48:15.225Z,91.78
2017-06-14T01:49:15.801Z,93.22
2017-06-14T01:50:16.374Z,94.07
2017-06-14T01:51:16.948Z,94.84
2017-06-14T01:52:17.523Z,93.60
2017-06-14T01:53:18.097Z,93.22
2017-06-14T01:54:18.670Z,92.36
2017-06-14T01:55:19.244Z,95.22
2017-06-14T01:56:19.818Z,94.46
2017-06-14T01:57:20.392Z,93.12
2017-06-14T01:58:20.977Z,94.36
2017-06-14T01:59:21.550Z,91.98
2017-06-14T02:00:22.127Z,94.22
2017-06-14T02:01:22.700Z,92.17
2017-06-14T02:02:23.275Z,93.31
2017-06-14T02:03:23.848Z,93.17
2017-06-14T02:04:24.422Z,91.60
2017-06-14T02:05:24.995Z,93.55
2017-06-14T02:06:25.571Z,93.07
2017-06-14T02:07:26.144Z,90.17
2017-06-14T02:08:26.717Z,93.46
2017-06-14T02:09:27.290Z,92.55
2017-06-14T02:10:27.863Z,93.26
2017-06-14T02:11:28.438Z,93.22
2017-06-14T02:12:29.009Z,93.26
2017-06-14T02:13:29.584Z,92.79
2017-06-14T02:14:30.156Z,92.69
2017-06-14T02:15:30.729Z,92.16
2017-06-14T02:16:31.303Z,89.73
2017-06-14T02:17:31.876Z,90.17
2017-06-14T02:18:32.449Z,93.12
2017-06-14T02:19:33.024Z,93.79
2017-06-14T02:20:33.596Z,94.56
2017-06-14T02:21:34.169Z,91.78
2017-06-14T02:22:34.743Z,94.51
2017-06-14T02:23:35.316Z,95.37
2017-06-14T02:24:35.888Z,93.27
2017-06-14T02:25:36.462Z,93.17
2017-06-14T02:26:37.036Z,95.37
2017-06-14T02:27:37.609Z,94.60
2017-06-14T02:28:38.183Z,95.84
2017-06-14T02:29:38.769Z,93.17
2017-06-14T02:30:39.340Z,95.94
2017-06-14T02:31:39.915Z,94.79
2017-06-14T02:32:40.489Z,94.51
2017-06-14T02:33:41.067Z,96.89
2017-06-14T02:34:41.637Z,95.94
2017-06-14T02:35:42.211Z,95.61
2017-06-14T02:36:42.784Z,94.51
2017-06-14T02:37:43.357Z,93.27
2017-06-14T02:38:43.930Z,93.88
2017-06-14T02:39:44.504Z,93.98
2017-06-14T02:40:45.076Z,95.51
2017-06-14T02:41:45.650Z,95.41
2017-06-14T02:42:46.222Z,96.65
2017-06-14T02:43:46.795Z,96.89
2017-06-14T02:44:47.369Z,96.03
2017-06-14T02:45:47.942Z,99.32
2017-06-14T02:46:48.527Z,96.65
2017-06-14T02:47:49.100Z,98.03
2017-06-14T02:48:49.675Z,94.51
2017-06-14T02:49:50.248Z,94.70
2017-06-14T02:50:50.823Z,94.74
2017-06-14T02:51:51.396Z,95.70
2017-06-14T02:52:51.970Z,94.65
2017-06-14T02:53:52.544Z,95.41
2017-06-14T02:54:53.116Z,94.74
2017-06-14T02:55:53.690Z,95.41
2017-06-14T02:56:54.274Z,97.70
2017-06-14T02:57:54.850Z,96.89
2017-06-14T02:58:55.423Z,94.12
2017-06-14T02:59:55.997Z,95.08
2017-06-14T03:00:56.571Z,96.51
2017-06-14T03:01:57.147Z,96.32
2017-06-14T03:02:57.719Z,95.08
2017-06-14T03:03:58.293Z,93.27
2017-06-14T03:04:58.867Z,95.22
2017-06-14T03:05:59.441Z,94.65
2017-06-14T03:07:00.014Z,98.32
2017-06-14T03:08:00.588Z,96.22
2017-06-14T03:09:01.162Z,97.75
2017-06-14T03:10:01.739Z,94.65
2017-06-14T03:11:02.314Z,96.27
2017-06-14T03:12:02.888Z,96.36
2017-06-14T03:13:03.464Z,96.94
2017-06-14T03:14:04.037Z,96.08
2017-06-14T03:15:04.612Z,96.84
2017-06-14T03:16:05.186Z,97.89
2017-06-14T03:17:05.772Z,95.61
2017-06-14T03:18:06.348Z,95.03
2017-06-14T03:19:06.921Z,98.80
2017-06-14T03:20:07.496Z,95.56
2017-06-14T03:21:08.072Z,94.27
2017-06-14T03:22:08.643Z,96.27
2017-06-14T03:23:09.218Z,97.85
2017-06-14T03:24:09.791Z,95.08
2017-06-14T03:25:10.365Z,96.41
2017-06-14T03:26:10.938Z,96.13
2017-06-14T03:27:11.515Z,95.94
2017-06-14T03:28:12.089Z,94.65
2017-06-14T03:29:12.666Z,96.65
2017-06-14T03:30:13.238Z,96.51
2017-06-14T03:31:13.814Z,94.65
2017-06-14T03:32:14.400Z,99.27
2017-06-14T03:33:14.975Z,97.17
2017-06-14T03:34:15.550Z,97.56
2017-06-14T03:35:16.125Z,96.27
2017-06-14T03:36:16.700Z,96.13
2017-06-14T03:37:17.273Z,96.56
2017-06-14T03:38:17.847Z,93.22
2017-06-14T03:39:18.420Z,94.51
2017-06-14T03:40:18.993Z,92.12
2017-06-14T03:41:19.567Z,94.84
2017-06-14T03:42:20.140Z,94.17
2017-06-14T03:43:20.728Z,96.65
2017-06-14T03:44:21.303Z,95.27
2017-06-14T03:45:21.877Z,98.27
2017-06-14T03:46:22.453Z,98.51
2017-06-14T03:47:23.028Z,97.27
2017-06-14T03:48:23.605Z,95.12
2017-06-14T03:49:24.179Z,93.60
2017-06-14T03:50:24.757Z,92.83
2017-06-14T03:51:25.331Z,92.69
2017-06-14T03:52:25.905Z,95.70
2017-06-14T03:53:26.481Z,92.93
2017-06-14T03:54:27.055Z,92.32
2017-06-14T03:55:27.632Z,92.60
2017-06-14T03:56:28.207Z,94.17
2017-06-14T03:57:28.785Z,96.08
2017-06-14T03:58:29.359Z,94.84
2017-06-14T03:59:29.934Z,97.94
2017-06-14T04:00:30.509Z,94.70
2017-06-14T04:01:31.084Z,93.74
2017-06-14T04:02:31.660Z,93.74
2017-06-14T04:03:32.236Z,94.70
2017-06-14T04:04:32.812Z,93.60
2017-06-14T04:05:33.400Z,95.03
2017-06-14T04:06:33.987Z,95.37
2017-06-14T04:07:34.574Z,96.70
2017-06-14T04:08:35.150Z,95.65
2017-06-14T04:09:35.724Z,93.65
2017-06-14T04:10:36.298Z,95.98
2017-06-14T04:11:36.873Z,94.31
2017-06-14T04:12:37.449Z,92.93
2017-06-14T04:13:38.026Z,92.65
2017-06-14T04:14:38.612Z,93.88
2017-06-14T04:15:39.188Z,94.65
2017-06-14T04:16:39.764Z,94.79
2017-06-14T04:17:40.339Z,94.46
2017-06-14T04:18:40.917Z,94.93
2017-06-14T04:19:41.493Z,94.46
2017-06-14T04:20:42.069Z,95.12
2017-06-14T04:21:42.647Z,93.74
2017-06-14T04:22:43.224Z,94.70
2017-06-14T04:23:43.802Z,94.51
2017-06-14T04:24:44.377Z,96.94
2017-06-14T04:25:44.966Z,94.79
2017-06-14T04:26:45.543Z,92.83
2017-06-14T04:27:46.118Z,92.83
2017-06-14T04:28:46.695Z,92.22
2017-06-14T04:29:47.273Z,94.22
2017-06-14T04:30:47.860Z,96.51
2017-06-14T04:31:48.438Z,96.56
2017-06-14T04:32:49.016Z,95.94
2017-06-14T04:33:49.605Z,95.17
2017-06-14T04:34:50.181Z,93.98
2017-06-14T04:35:50.759Z,92.88
2017-06-14T04:36:51.335Z,93.26
2017-06-14T04:37:51.911Z,94.65
2017-06-14T04:38:52.489Z,95.41
2017-06-14T04:39:53.066Z,95.61
2017-06-14T04:40:53.644Z,94.84
2017-06-14T04:41:54.220Z,95.79
2017-06-14T04:42:54.797Z,97.27
2017-06-14T04:43:55.374Z,95.65
2017-06-14T04:44:55.951Z,95.46
2017-06-14T04:45:56.530Z,95.65
2017-06-14T04:46:57.106Z,94.22
2017-06-14T04:47:57.682Z,94.89
2017-06-14T04:48:58.260Z,94.79
2017-06-14T04:49:58.838Z,94.65
2017-06-14T04:50:59.416Z,94.17
2017-06-14T04:51:59.992Z,92.93
2017-06-14T04:53:00.569Z,91.88
2017-06-14T04:54:01.147Z,93.98
2017-06-14T04:55:01.724Z,92.69
2017-06-14T04:56:02.303Z,91.21
2017-06-14T04:57:02.879Z,93.21
2017-06-14T04:58:03.456Z,92.26
2017-06-14T04:59:04.033Z,93.74
2017-06-14T05:00:04.611Z,91.64
2017-06-14T05:01:05.191Z,91.40
2017-06-14T05:02:05.767Z,92.93
2017-06-14T05:03:06.343Z,92.83
2017-06-14T05:04:06.921Z,93.12
2017-06-14T05:05:07.499Z,90.78
2017-06-14T05:06:08.078Z,90.59
2017-06-14T05:07:08.654Z,90.64
2017-06-14T05:08:09.231Z,91.88
2017-06-14T05:09:09.809Z,91.59
2017-06-14T05:10:10.387Z,92.07
2017-06-14T05:11:10.966Z,91.50
2017-06-14T05:12:11.543Z,91.78
2017-06-14T05:13:12.119Z,91.78
2017-06-14T05:14:12.698Z,91.78
2017-06-14T05:15:13.288Z,91.11
2017-06-14T05:16:13.865Z,90.92
2017-06-14T05:17:14.444Z,91.69
2017-06-14T05:18:15.021Z,91.88
2017-06-14T05:19:15.598Z,91.30
2017-06-14T05:20:16.176Z,91.54
2017-06-14T05:21:16.752Z,91.54
2017-06-14T05:22:17.332Z,90.78
2017-06-14T05:23:17.909Z,90.20
2017-06-14T05:24:18.487Z,90.59
2017-06-14T05:25:19.065Z,90.49
2017-06-14T05:26:19.641Z,90.16
2017-06-14T05:27:20.220Z,89.29
2017-06-14T05:28:20.798Z,89.92
2017-06-14T05:29:21.377Z,89.44
2017-06-14T05:30:21.954Z,89.87
2017-06-14T05:31:22.532Z,90.16
2017-06-14T05:32:23.111Z,90.25
2017-06-14T05:33:23.688Z,88.91
2017-06-14T05:34:24.268Z,88.91
2017-06-14T05:35:24.845Z,90.06
2017-06-14T05:36:25.423Z,90.44
2017-06-14T05:37:26.002Z,89.58
2017-06-14T05:38:26.591Z,89.58
2017-06-14T05:39:27.180Z,89.10
2017-06-14T05:40:27.758Z,89.87
2017-06-14T05:41:28.335Z,89.58
2017-06-14T05:42:28.913Z,88.15
2017-06-14T05:43:29.493Z,88.53
2017-06-14T05:44:30.070Z,88.24
2017-06-14T05:45:30.648Z,88.48
2017-06-14T05:46:31.225Z,88.38
2017-06-14T05:47:31.804Z,88.09
2017-06-14T05:48:32.383Z,88.00
2017-06-14T05:49:32.960Z,88.00
2017-06-14T05:50:33.538Z,86.94
2017-06-14T05:51:34.116Z,87.43
2017-06-14T05:52:34.694Z,86.90
2017-06-14T05:53:35.273Z,85.65
2017-06-14T05:54:35.851Z,85.55
2017-06-14T05:55:36.430Z,85.65
2017-06-14T05:56:37.008Z,85.27
2017-06-14T05:57:37.598Z,85.12
2017-06-14T05:58:38.176Z,84.69
2017-06-14T05:59:38.754Z,85.55
2017-06-14T06:00:39.334Z,85.75
2017-06-14T06:01:39.913Z,86.28
2017-06-14T06:02:40.501Z,87.14
2017-06-14T06:03:41.081Z,87.52
2017-06-14T06:04:41.670Z,87.62
2017-06-14T06:05:42.252Z,87.23
2017-06-14T06:06:42.828Z,86.80
2017-06-14T06:07:43.408Z,85.21
2017-06-14T06:08:43.987Z,84.35
2017-06-14T06:09:44.564Z,84.16
2017-06-14T06:10:45.143Z,84.06
2017-06-14T06:11:45.727Z,83.82
2017-06-14T06:12:46.302Z,82.96
2017-06-14T06:13:46.880Z,83.20
2017-06-14T06:14:47.458Z,83.05
2017-06-14T06:15:48.040Z,82.86
2017-06-14T06:16:48.616Z,82.00
2017-06-14T06:17:49.198Z,81.04
2017-06-14T06:18:49.776Z,81.13
2017-06-14T06:19:50.354Z,81.13
2017-06-14T06:20:50.934Z,80.85
2017-06-14T06:21:51.514Z,80.37
2017-06-14T06:22:52.093Z,81.04
2017-06-14T06:23:52.673Z,81.13
2017-06-14T06:24:53.251Z,80.33
2017-06-14T06:25:53.831Z,82.00
2017-06-14T06:26:54.422Z,81.86
2017-06-14T06:27:55.000Z,81.33
2017-06-14T06:28:55.580Z,81.62
2017-06-14T06:29:56.159Z,79.99
2017-06-14T06:30:56.751Z,80.52
2017-06-14T06:31:57.331Z,79.80
2017-06-14T06:32:57.910Z,80.76
2017-06-14T06:33:58.530Z,79.60
2017-06-14T06:34:59.080Z,78.84
2017-06-14T06:35:59.674Z,78.99
2017-06-14T06:37:00.250Z,78.45
2017-06-14T06:38:00.829Z,79.03
2017-06-14T06:39:01.407Z,77.73
2017-06-14T06:40:01.987Z,76.90
2017-06-14T06:41:02.567Z,76.14
2017-06-14T06:42:03.146Z,75.08
2017-06-14T06:43:03.725Z,75.58
2017-06-14T06:44:04.304Z,77.44
2017-06-14T06:45:04.883Z,76.82
2017-06-14T06:46:05.463Z,76.29
2017-06-14T06:47:06.041Z,76.19
2017-06-14T06:48:06.621Z,75.62
2017-06-14T06:49:07.200Z,76.96
2017-06-14T06:50:07.791Z,77.69
2017-06-14T06:51:08.370Z,78.64
2017-06-14T06:52:08.949Z,78.74
2017-06-14T06:53:09.528Z,79.13
2017-06-14T06:54:10.108Z,78.97
2017-06-14T06:55:10.687Z,78.49
2017-06-14T06:56:11.268Z,77.73
2017-06-14T06:57:11.847Z,76.81
2017-06-14T06:58:12.425Z,75.31
2017-06-14T06:59:13.007Z,76.27
2017-06-14T07:00:13.597Z,74.02
2017-06-14T07:01:14.179Z,75.08
2017-06-14T07:02:14.762Z,74.89
2017-06-14T07:03:15.339Z,75.08
2017-06-14T07:04:15.917Z,74.12
2017-06-14T07:05:16.496Z,74.51
2017-06-14T07:06:17.076Z,74.51
2017-06-14T07:07:17.657Z,74.02
2017-06-14T07:08:18.237Z,72.30
2017-06-14T07:09:18.816Z,72.01
2017-06-14T07:10:19.395Z,72.01
2017-06-14T07:11:19.974Z,71.25
2017-06-14T07:12:20.555Z,70.99
2017-06-14T07:13:21.134Z,69.26
2017-06-14T07:14:21.714Z,68.50
2017-06-14T07:15:22.294Z,69.11
2017-06-14T07:16:22.874Z,68.15
2017-06-14T07:17:23.454Z,67.86
2017-06-14T07:18:24.035Z,67.00
2017-06-14T07:19:24.616Z,66.80
2017-06-14T07:20:25.195Z,66.29
2017-06-14T07:21:25.774Z,68.05
2017-06-14T07:22:26.356Z,66.52
2017-06-14T07:23:26.936Z,66.67
2017-06-14T07:24:27.518Z,67.29
2017-06-14T07:25:28.108Z,66.77
2017-06-14T07:26:28.678Z,66.86
2017-06-14T07:27:29.259Z,67.76
2017-06-14T07:28:29.839Z,66.74
2017-06-14T07:29:30.419Z,65.88
2017-06-14T07:30:31.000Z,66.26
2017-06-14T07:31:31.579Z,65.49
2017-06-14T07:32:32.161Z,66.84
2017-06-14T07:33:32.752Z,66.07
2017-06-14T07:34:33.333Z,65.81
2017-06-14T07:35:33.915Z,67.54
2017-06-14T07:36:34.496Z,68.05
2017-06-14T07:37:35.075Z,67.76
2017-06-14T07:38:35.669Z,66.36
2017-06-14T07:39:36.249Z,65.49
2017-06-14T07:40:36.828Z,66.36
2017-06-14T07:41:37.408Z,66.84
2017-06-14T07:42:37.989Z,66.30
2017-06-14T07:43:38.580Z,65.20
2017-06-14T07:44:39.160Z,66.23
2017-06-14T07:45:39.741Z,66.36
2017-06-14T07:46:40.327Z,66.20
2017-06-14T07:47:40.903Z,65.01
2017-06-14T07:48:41.482Z,65.33
2017-06-14T07:49:42.063Z,66.07
2017-06-14T07:50:42.643Z,65.97
2017-06-14T07:51:43.235Z,65.69
2017-06-14T07:52:43.815Z,65.88
2017-06-14T07:53:44.396Z,65.33
2017-06-14T07:54:44.977Z,65.05
2017-06-14T07:55:45.558Z,64.47
2017-06-14T07:56:46.139Z,64.22
2017-06-14T07:57:46.719Z,63.12
2017-06-14T07:58:47.299Z,63.41
2017-06-14T07:59:47.881Z,63.70
2017-06-14T08:00:48.463Z,62.96
2017-06-14T08:01:49.054Z,62.96
2017-06-14T08:02:49.635Z,62.29
2017-06-14T08:03:50.219Z,62.35
2017-06-14T08:04:50.798Z,63.96
2017-06-14T08:05:51.390Z,64.25
2017-06-14T08:06:51.970Z,64.89
2017-06-14T08:07:52.550Z,65.17
2017-06-14T08:08:53.130Z,65.56
2017-06-14T08:09:53.723Z,66.80
2017-06-14T08:10:54.305Z,65.49
2017-06-14T08:11:54.883Z,65.81
2017-06-14T08:12:55.473Z,65.05
2017-06-14T08:13:56.047Z,64.79
2017-06-14T08:14:56.628Z,63.89
2017-06-14T08:15:57.220Z,65.43
2017-06-14T08:16:57.802Z,64.60
2017-06-14T08:17:58.383Z,65.05
2017-06-14T08:18:58.977Z,66.23
2017-06-14T08:19:59.557Z,64.50
2017-06-14T08:21:00.149Z,64.18
2017-06-14T08:22:00.730Z,65.08
2017-06-14T08:23:01.311Z,64.47
2017-06-14T08:24:01.891Z,63.70
2017-06-14T08:25:02.472Z,64.28
2017-06-14T08:26:03.054Z,64.53
2017-06-14T08:27:03.635Z,64.56
2017-06-14T08:28:04.229Z,64.22
2017-06-14T08:29:04.810Z,62.48
2017-06-14T08:30:05.391Z,63.15
2017-06-14T08:31:05.984Z,63.64
2017-06-14T08:32:06.565Z,62.61
2017-06-14T08:33:07.147Z,61.49
2017-06-14T08:34:07.728Z,63.09
2017-06-14T08:35:08.308Z,64.09
2017-06-14T08:36:08.889Z,62.55
2017-06-14T08:37:09.472Z,62.16
2017-06-14T08:38:10.053Z,63.02
2017-06-14T08:39:10.633Z,62.71
2017-06-14T08:40:11.214Z,62.96
2017-06-14T08:41:11.794Z,62.71
2017-06-14T08:42:12.377Z,60.97
2017-06-14T08:43:12.958Z,61.46
2017-06-14T08:44:13.540Z,61.77
2017-06-14T08:45:14.121Z,60.24
2017-06-14T08:46:14.714Z,60.17
2017-06-14T08:47:15.294Z,58.89
2017-06-14T08:48:15.875Z,59.17
2017-06-14T08:49:16.456Z,56.87
2017-06-14T08:50:17.039Z,55.43
2017-06-14T08:51:17.620Z,56.60
2017-06-14T08:52:18.205Z,54.87
2017-06-14T08:53:18.783Z,55.90
2017-06-14T08:54:19.368Z,56.32
2017-06-14T08:55:19.948Z,56.20
2017-06-14T08:56:20.529Z,57.98
2017-06-14T08:57:21.111Z,57.53
2017-06-14T08:58:21.692Z,55.31
2017-06-14T08:59:22.278Z,54.97
2017-06-14T09:00:22.857Z,55.33
2017-06-14T09:01:23.437Z,56.16
2017-06-14T09:02:24.023Z,56.20
2017-06-14T09:03:24.600Z,57.47
2017-06-14T09:04:25.182Z,56.12
2017-06-14T09:05:25.765Z,57.12
2017-06-14T09:06:26.346Z,56.41
2017-06-14T09:07:26.929Z,56.48
2017-06-14T09:08:27.510Z,56.87
2017-06-14T09:09:28.091Z,57.09
2017-06-14T09:10:28.674Z,57.09
2017-06-14T09:11:29.256Z,58.72
2017-06-14T09:12:29.842Z,58.37
2017-06-14T09:13:30.422Z,55.89
2017-06-14T09:14:31.002Z,55.29
2017-06-14T09:15:31.585Z,56.99
2017-06-14T09:16:32.168Z,57.89
2017-06-14T09:17:32.752Z,57.37
2017-06-14T09:18:33.332Z,57.09
2017-06-14T09:19:33.914Z,56.12
2017-06-14T09:20:34.497Z,54.75
2017-06-14T09:21:35.080Z,55.23
2017-06-14T09:22:35.673Z,54.75
2017-06-14T09:23:36.257Z,55.16
2017-06-14T09:24:36.837Z,55.93
2017-06-14T09:25:37.420Z,54.80
2017-06-14T09:26:38.001Z,55.41
2017-06-14T09:27:38.584Z,53.48
2017-06-14T09:28:39.167Z,54.35
2017-06-14T09:29:39.760Z,53.67
2017-06-14T09:30:40.342Z,54.16
2017-06-14T09:31:40.926Z,53.36
2017-06-14T09:32:41.506Z,53.96
2017-06-14T09:33:42.088Z,53.03
2017-06-14T09:34:42.669Z,52.61
2017-06-14T09:35:43.251Z,53.23
2017-06-14T09:36:43.835Z,54.94
2017-06-14T09:37:44.417Z,55.33
2017-06-14T09:38:44.999Z,56.22
2017-06-14T09:39:45.583Z,56.03
2017-06-14T09:40:46.162Z,54.65
2017-06-14T09:41:46.746Z,55.04
2017-06-14T09:42:47.328Z,55.87
2017-06-14T09:43:47.920Z,54.30
2017-06-14T09:44:48.505Z,54.22
2017-06-14T09:45:49.086Z,55.00
2017-06-14T09:46:49.668Z,53.87
2017-06-14T09:47:50.250Z,52.81
2017-06-14T09:48:50.833Z,52.13
2017-06-14T09:49:51.416Z,51.75
2017-06-14T09:50:51.997Z,51.97
2017-06-14T09:51:52.579Z,53.13
2017-06-14T09:52:53.160Z,51.97
2017-06-14T09:53:53.742Z,51.00
2017-06-14T09:54:54.326Z,51.00
2017-06-14T09:55:54.907Z,50.69
2017-06-14T09:56:55.490Z,51.94
2017-06-14T09:57:56.073Z,51.36
2017-06-14T09:58:56.653Z,51.05
2017-06-14T09:59:57.237Z,52.81
2017-06-14T10:00:57.820Z,50.64
2017-06-14T10:01:58.403Z,49.15
2017-06-14T10:02:58.985Z,45.58
2017-06-14T10:03:59.578Z,47.99
2017-06-14T10:05:00.162Z,48.28
2017-06-14T10:06:00.743Z,48.30
2017-06-14T10:07:01.325Z,47.63
2017-06-14T10:08:01.909Z,48.08
2017-06-14T10:09:02.490Z,49.63
2017-06-14T10:10:03.074Z,49.94
2017-06-14T10:11:03.655Z,50.52
2017-06-14T10:12:04.237Z,50.76
2017-06-14T10:13:04.821Z,49.55
2017-06-14T10:14:05.403Z,49.75
2017-06-14T10:15:05.986Z,49.84
2017-06-14T10:16:06.567Z,49.37
2017-06-14T10:17:07.149Z,48.66
2017-06-14T10:18:07.735Z,50.49
2017-06-14T10:19:08.316Z,48.95
2017-06-14T10:20:08.899Z,49.65
2017-06-14T10:21:09.482Z,49.17
2017-06-14T10:22:10.063Z,48.95
2017-06-14T10:23:10.647Z,50.88
2017-06-14T10:24:11.230Z,50.59
2017-06-14T10:25:11.814Z,51.43
2017-06-14T10:26:12.395Z,52.33
2017-06-14T10:27:12.977Z,51.10
2017-06-14T10:28:13.561Z,49.68
2017-06-14T10:29:14.144Z,49.12
2017-06-14T10:30:14.730Z,48.95
2017-06-14T10:31:15.309Z,48.69
2017-06-14T10:32:15.891Z,48.97
2017-06-14T10:33:16.475Z,48.97
2017-06-14T10:34:17.059Z,49.53
2017-06-14T10:35:17.641Z,50.49
2017-06-14T10:36:18.223Z,50.49
2017-06-14T10:37:18.805Z,50.71
2017-06-14T10:38:19.391Z,50.28
2017-06-14T10:39:19.983Z,49.90
2017-06-14T10:40:20.565Z,49.34
2017-06-14T10:41:21.149Z,47.29
2017-06-14T10:42:21.731Z,47.58
2017-06-14T10:43:22.314Z,48.13
2017-06-14T10:44:22.896Z,47.94
2017-06-14T10:45:23.491Z,48.38
2017-06-14T10:46:24.072Z,50.49
2017-06-14T10:47:24.654Z,50.52
2017-06-14T10:48:25.237Z,50.06
2017-06-14T10:49:25.823Z,50.35
2017-06-14T10:50:26.403Z,50.47
2017-06-14T10:51:26.986Z,49.02
2017-06-14T10:52:27.567Z,49.60
2017-06-14T10:53:28.149Z,49.55
2017-06-14T10:54:28.733Z,49.65
2017-06-14T10:55:29.314Z,50.54
2017-06-14T10:56:29.900Z,49.70
2017-06-14T10:57:30.484Z,47.60
2017-06-14T10:58:31.063Z,47.41
2017-06-14T10:59:31.647Z,46.71
2017-06-14T11:00:32.230Z,48.49
2017-06-14T11:01:32.814Z,49.65
2017-06-14T11:02:33.397Z,48.90
2017-06-14T11:03:33.978Z,48.49
2017-06-14T11:04:34.589Z,48.44
2017-06-14T11:05:35.145Z,48.16
2017-06-14T11:06:35.730Z,47.87
2017-06-14T11:07:36.311Z,47.09
2017-06-14T11:08:36.893Z,47.65
2017-06-14T11:09:37.477Z,48.16
2017-06-14T11:10:38.060Z,49.12
2017-06-14T11:11:38.645Z,46.71
2017-06-14T11:12:39.239Z,47.70
2017-06-14T11:13:39.821Z,47.80
2017-06-14T11:14:40.403Z,47.31
2017-06-14T11:15:40.985Z,47.41
2017-06-14T11:16:41.569Z,46.75
2017-06-14T11:17:42.158Z,48.03
2017-06-14T11:18:42.740Z,45.21
2017-06-14T11:19:43.323Z,45.28
2017-06-14T11:20:43.906Z,46.51
2017-06-14T11:21:44.488Z,46.73
2017-06-14T11:22:45.073Z,47.87
2017-06-14T11:23:45.656Z,47.91
2017-06-14T11:24:46.236Z,45.98
2017-06-14T11:25:46.819Z,45.62
2017-06-14T11:26:47.409Z,45.35
2017-06-14T11:27:47.986Z,43.82
2017-06-14T11:28:48.569Z,42.55
2017-06-14T11:29:49.151Z,44.36
2017-06-14T11:30:49.733Z,45.14
2017-06-14T11:31:50.318Z,44.56
2017-06-14T11:32:50.901Z,45.42
2017-06-14T11:33:51.483Z,43.90
2017-06-14T11:34:52.067Z,41.93
2017-06-14T11:35:52.650Z,43.08
2017-06-14T11:36:53.232Z,42.52
2017-06-14T11:37:53.816Z,43.61
2017-06-14T11:38:54.399Z,43.51
2017-06-14T11:39:54.984Z,41.97
2017-06-14T11:40:55.579Z,42.52
2017-06-14T11:41:56.161Z,43.23
2017-06-14T11:42:56.744Z,43.54
2017-06-14T11:43:57.327Z,43.92
2017-06-14T11:44:57.910Z,44.60
2017-06-14T11:45:58.505Z,44.48
2017-06-14T11:46:59.087Z,45.35
2017-06-14T11:47:59.671Z,43.82
2017-06-14T11:49:00.256Z,43.63
2017-06-14T11:50:00.838Z,44.48
2017-06-14T11:51:01.422Z,44.09
2017-06-14T11:52:02.004Z,44.21
2017-06-14T11:53:02.587Z,43.05
2017-06-14T11:54:03.172Z,44.21
2017-06-14T11:55:03.756Z,44.48
2017-06-14T11:56:04.340Z,44.60
2017-06-14T11:57:04.923Z,43.71
2017-06-14T11:58:05.506Z,44.31
2017-06-14T11:59:06.101Z,43.10
2017-06-14T12:00:06.688Z,43.08
2017-06-14T12:01:07.267Z,43.57
2017-06-14T12:02:07.862Z,44.15
2017-06-14T12:03:08.444Z,43.64
2017-06-14T12:04:09.040Z,44.34
2017-06-14T12:05:09.622Z,44.36
2017-06-14T12:06:10.207Z,44.60
2017-06-14T12:07:10.790Z,40.61
2017-06-14T12:08:11.375Z,40.86
2017-06-14T12:09:11.959Z,41.63
2017-06-14T12:10:12.542Z,42.02
2017-06-14T12:11:13.126Z,43.85
2017-06-14T12:12:13.711Z,43.90
2017-06-14T12:13:14.297Z,41.91
2017-06-14T12:14:14.881Z,41.37
2017-06-14T12:15:15.465Z,38.50
2017-06-14T12:16:16.060Z,40.15
2017-06-14T12:17:16.644Z,41.04
2017-06-14T12:18:17.229Z,40.46
2017-06-14T12:19:17.825Z,39.90
2017-06-14T12:20:18.410Z,39.72
2017-06-14T12:21:18.995Z,38.13
2017-06-14T12:22:19.580Z,39.12
2017-06-14T12:23:20.164Z,36.98
2017-06-14T12:24:20.750Z,38.02
2017-06-14T12:25:21.335Z,38.39
2017-06-14T12:26:21.919Z,39.88
2017-06-14T12:27:22.503Z,38.79
2017-06-14T12:28:23.089Z,39.57
2017-06-14T12:29:23.684Z,41.09
2017-06-14T12:30:24.268Z,41.56
2017-06-14T12:31:24.853Z,42.89
2017-06-14T12:32:25.438Z,42.14
2017-06-14T12:33:26.026Z,42.35
2017-06-14T12:34:26.607Z,40.69
2017-06-14T12:35:27.192Z,40.86
2017-06-14T12:36:27.777Z,41.83
2017-06-14T12:37:28.362Z,42.02
2017-06-14T12:38:28.946Z,41.73
2017-06-14T12:39:29.531Z,42.33
2017-06-14T12:40:30.116Z,42.52
2017-06-14T12:41:30.707Z,42.16
2017-06-14T12:42:31.285Z,41.19
2017-06-14T12:43:31.871Z,41.60
2017-06-14T12:44:32.456Z,39.86
2017-06-14T12:45:33.041Z,40.09
2017-06-14T12:46:33.624Z,38.64
2017-06-14T12:47:34.208Z,39.80
2017-06-14T12:48:34.793Z,39.53
2017-06-14T12:49:35.379Z,39.06
2017-06-14T12:50:35.963Z,38.95
2017-06-14T12:51:36.547Z,37.69
2017-06-14T12:52:37.133Z,39.14
2017-06-14T12:53:37.717Z,38.78
2017-06-14T12:54:38.302Z,37.30
2017-06-14T12:55:38.886Z,36.43
2017-06-14T12:56:39.472Z,36.22
2017-06-14T12:57:40.059Z,38.62
2017-06-14T12:58:40.644Z,38.53
2017-06-14T12:59:41.228Z,36.98